Time;durP1;ratioP1;P1;durP2;ratioP2;P2;SDS_P1;SDS_P2;PMS_P1;PMS_P2;Temp;Humidity;BMP_temperature;BMP_pressure;BME280_temperature;BME280_humidity;BME280_pressure;Samples;Min_cycle;Max_cycle;Signal;HPM_P1;HPM_P2
2022/03/14 00:01:30;;;;;;;22.40;12.10;;;9.50;49.90;;;;;;5091916;28;20745;-75
2022/03/14 00:03:59;;;;;;;23.53;12.10;;;9.50;50.20;;;;;;5091364;28;20424;-75
2022/03/14 00:06:27;;;;;;;23.43;12.53;;;9.50;50.50;;;;;;5091936;28;20979;-75
2022/03/14 00:08:55;;;;;;;27.20;13.73;;;9.60;50.60;;;;;;5091788;28;20466;-73
2022/03/14 00:11:23;;;;;;;26.13;12.87;;;9.60;50.50;;;;;;5077053;28;20511;-75
2022/03/14 00:13:50;;;;;;;30.73;12.00;;;9.60;50.30;;;;;;5096536;28;20417;-73
2022/03/14 00:16:36;;;;;;;25.20;11.80;;;9.50;50.70;;;;;;5093838;28;20570;-75
2022/03/14 00:19:03;;;;;;;20.43;11.43;;;9.50;51.30;;;;;;5095285;28;20425;-73
2022/03/14 00:21:29;;;;;;;21.13;11.73;;;9.50;51.40;;;;;;5096338;28;20465;-74
2022/03/14 00:23:57;;;;;;;19.93;11.63;;;9.50;50.90;;;;;;5096633;28;20417;-74
2022/03/14 00:26:24;;;;;;;22.90;12.73;;;9.50;50.60;;;;;;5099200;28;20436;-75
2022/03/14 00:28:50;;;;;;;23.40;12.80;;;9.50;50.30;;;;;;5088927;28;21007;-75
2022/03/14 00:31:16;;;;;;;21.63;12.77;;;9.40;50.90;;;;;;5099882;28;20453;-74
2022/03/14 00:33:42;;;;;;;20.90;11.70;;;9.50;50.30;;;;;;5079974;28;20421;-73
2022/03/14 00:36:09;;;;;;;23.30;12.63;;;9.50;49.40;;;;;;5080634;28;20226;-74
2022/03/14 00:38:36;;;;;;;20.90;12.47;;;9.50;49.70;;;;;;5080814;28;20413;-73
2022/03/14 00:41:03;;;;;;;20.73;11.90;;;9.60;49.70;;;;;;5098772;28;20453;-75
2022/03/14 00:43:30;;;;;;;25.13;12.20;;;9.50;49.80;;;;;;5094803;28;20996;-74
2022/03/14 00:45:56;;;;;;;21.83;11.30;;;9.50;50.10;;;;;;5094520;28;20504;-75
2022/03/14 00:48:22;;;;;;;24.77;12.60;;;9.50;50.30;;;;;;5095454;28;20433;-75
2022/03/14 00:50:49;;;;;;;23.23;11.90;;;9.60;50.30;;;;;;5096716;28;20444;-74
2022/03/14 00:53:15;;;;;;;24.80;12.40;;;9.70;49.40;;;;;;5082626;28;20179;-75
2022/03/14 00:55:41;;;;;;;23.97;12.57;;;9.70;48.90;;;;;;5082482;28;20556;-72
2022/03/14 00:58:07;;;;;;;24.10;11.93;;;9.70;48.70;;;;;;5091149;28;20425;-75
2022/03/14 01:00:34;;;;;;;21.33;12.40;;;9.80;47.00;;;;;;5092577;28;20992;-75
2022/03/14 01:03:00;;;;;;;22.90;12.47;;;9.80;47.90;;;;;;5091699;28;20417;-74
2022/03/14 01:05:26;;;;;;;26.70;12.80;;;9.90;47.70;;;;;;5090886;28;20417;-75
2022/03/14 01:07:52;;;;;;;22.67;11.70;;;10.00;47.10;;;;;;5090621;28;20460;-76
2022/03/14 01:10:18;;;;;;;25.40;12.67;;;10.10;47.80;;;;;;5077860;28;20473;-75
2022/03/14 01:12:44;;;;;;;24.37;11.73;;;10.00;47.80;;;;;;5072947;28;20183;-75
2022/03/14 01:15:10;;;;;;;27.63;12.80;;;10.00;48.20;;;;;;5090843;28;20901;-74
2022/03/14 01:17:36;;;;;;;27.10;13.53;;;10.00;48.90;;;;;;5090860;28;20182;-75
2022/03/14 01:20:06;;;;;;;30.73;13.93;;;10.10;49.80;;;;;;5093558;28;20429;-74
2022/03/14 01:22:32;;;;;;;32.03;14.20;;;10.20;50.50;;;;;;5094323;28;20413;-75
2022/03/14 01:24:58;;;;;;;31.93;15.47;;;10.30;52.50;;;;;;5093760;28;20770;-75
2022/03/14 01:27:24;;;;;;;28.87;14.40;;;10.40;56.80;;;;;;5091818;28;20187;-75
2022/03/14 01:29:49;;;;;;;29.07;15.10;;;10.60;57.20;;;;;;5091563;28;20285;-74
2022/03/14 01:32:15;;;;;;;30.37;15.53;;;10.60;58.20;;;;;;5091209;28;20524;-75
2022/03/14 01:34:41;;;;;;;30.37;15.90;;;10.60;58.90;;;;;;5092415;28;20666;-74
2022/03/14 01:37:07;;;;;;;31.20;17.10;;;10.70;60.00;;;;;;5094179;28;20176;-73
2022/03/14 01:39:32;;;;;;;28.87;15.30;;;10.70;59.90;;;;;;5076835;28;20223;-75
2022/03/14 01:41:58;;;;;;;31.33;15.73;;;10.70;58.80;;;;;;5095542;28;20534;-76
2022/03/14 01:44:25;;;;;;;30.00;15.03;;;10.70;58.80;;;;;;5095082;28;20171;-75
2022/03/14 01:46:50;;;;;;;34.93;17.20;;;10.70;59.90;;;;;;5094037;28;20432;-74
2022/03/14 01:49:18;;;;;;;28.57;16.13;;;10.70;64.10;;;;;;5094579;28;20548;-75
2022/03/14 01:51:44;;;;;;;32.30;15.80;;;10.70;66.70;;;;;;5094691;28;20424;-75
2022/03/14 01:54:10;;;;;;;35.53;18.47;;;10.70;68.30;;;;;;5094778;28;21145;-75
2022/03/14 01:56:39;;;;;;;27.60;15.70;;;10.60;68.00;;;;;;5091578;28;20493;-75
2022/03/14 01:59:09;;;;;;;29.47;16.80;;;10.60;68.80;;;;;;5093609;28;20409;-75
2022/03/14 02:01:35;;;;;;;27.23;15.33;;;10.60;69.50;;;;;;5094147;28;20463;-75
2022/03/14 02:04:02;;;;;;;35.00;16.50;;;10.70;69.90;;;;;;5080509;28;21125;-74
2022/03/14 02:06:28;;;;;;;31.87;17.20;;;10.70;70.10;;;;;;5095864;28;20205;-73
2022/03/14 02:08:54;;;;;;;27.97;16.10;;;10.60;70.40;;;;;;5085532;28;20417;-76
2022/03/14 02:11:20;;;;;;;30.07;16.33;;;10.60;71.30;;;;;;5079514;28;20436;-75
2022/03/14 02:13:46;;;;;;;34.30;17.97;;;10.60;71.60;;;;;;5094329;28;20450;-75
2022/03/14 02:16:12;;;;;;;27.33;16.10;;;10.60;71.80;;;;;;5094274;28;20512;-75
2022/03/14 02:18:38;;;;;;;39.57;16.50;;;10.60;72.60;;;;;;5094231;28;20976;-75
2022/03/14 02:21:04;;;;;;;29.47;17.63;;;10.60;73.00;;;;;;5093803;28;20440;-76
2022/03/14 02:23:30;;;;;;;31.43;16.70;;;10.50;73.60;;;;;;5094452;28;20434;-77
2022/03/14 02:25:55;;;;;;;27.83;16.13;;;10.50;73.50;;;;;;5098284;28;20531;-74
2022/03/14 02:28:23;;;;;;;30.93;15.90;;;10.50;73.20;;;;;;5102009;28;20983;-75
2022/03/14 02:30:52;;;;;;;31.50;15.87;;;10.50;72.00;;;;;;5100973;28;20336;-75
2022/03/14 02:33:19;;;;;;;35.60;16.73;;;10.50;71.00;;;;;;5096645;28;20439;-75
2022/03/14 02:35:46;;;;;;;30.87;16.63;;;10.50;70.40;;;;;;5082505;28;20551;-75
2022/03/14 02:38:14;;;;;;;28.97;15.53;;;10.50;70.40;;;;;;5101991;28;20911;-76
2022/03/14 02:40:47;;;;;;;28.50;15.70;;;10.50;70.40;;;;;;5103721;28;20451;-75
2022/03/14 02:43:20;;;;;;;29.67;15.60;;;10.60;69.80;;;;;;5101292;28;20466;-74
2022/03/14 02:45:47;;;;;;;31.90;16.57;;;10.60;69.90;;;;;;5099123;28;20524;-75
2022/03/14 02:48:13;;;;;;;33.73;16.63;;;10.70;69.50;;;;;;5081049;28;20468;-74
2022/03/14 02:50:42;;;;;;;35.03;15.40;;;10.80;69.50;;;;;;5086034;28;20463;-74
2022/03/14 02:53:09;;;;;;;32.13;15.93;;;10.80;69.70;;;;;;5102113;28;20598;-73
2022/03/14 02:55:37;;;;;;;31.07;16.70;;;10.70;70.70;;;;;;5102360;28;20606;-75
2022/03/14 02:58:03;;;;;;;32.07;15.70;;;10.60;72.60;;;;;;5110107;28;20467;-76
2022/03/14 03:00:29;;;;;;;29.50;15.40;;;10.40;74.50;;;;;;5096473;28;20436;-74
2022/03/14 03:02:55;;;;;;;28.73;14.90;;;10.30;76.10;;;;;;5111127;28;20472;-74
2022/03/14 03:05:21;;;;;;;30.37;16.20;;;10.20;78.30;;;;;;5102723;28;20462;-72
2022/03/14 03:07:48;;;;;;;24.43;12.93;;;10.10;80.30;;;;;;5097065;28;20520;-72
2022/03/14 03:10:23;;;;;;;26.57;13.70;;;9.90;81.80;;;;;;5083647;28;20203;-74
2022/03/14 03:12:49;;;;;;;28.20;14.03;;;9.70;83.30;;;;;;5102904;28;20439;-72
2022/03/14 03:15:15;;;;;;;29.87;15.83;;;9.60;84.60;;;;;;5101416;28;20465;-72
2022/03/14 03:17:42;;;;;;;28.20;14.77;;;9.60;86.20;;;;;;5108181;28;20421;-72
2022/03/14 03:20:09;;;;;;;25.47;13.97;;;9.60;87.70;;;;;;5108431;28;20504;-73
2022/03/14 03:22:35;;;;;;;23.97;13.10;;;9.50;88.40;;;;;;5106270;28;20501;-73
2022/03/14 03:25:01;;;;;;;26.33;11.93;;;9.50;88.70;;;;;;5085576;28;20456;-73
2022/03/14 03:27:27;;;;;;;23.00;12.17;;;9.40;89.20;;;;;;5078722;28;20540;-75
2022/03/14 03:29:53;;;;;;;21.10;11.47;;;9.40;90.10;;;;;;5091539;28;21022;-73
2022/03/14 03:32:18;;;;;;;21.20;9.80;;;9.40;90.30;;;;;;5094007;28;20202;-72
2022/03/14 03:34:44;;;;;;;20.20;11.17;;;9.30;90.70;;;;;;5093011;28;20701;-71
2022/03/14 03:37:10;;;;;;;18.07;9.87;;;9.30;91.10;;;;;;5092575;28;20279;-74
2022/03/14 03:39:36;;;;;;;22.03;10.53;;;9.30;91.30;;;;;;5091614;28;20272;-73
2022/03/14 03:42:02;;;;;;;19.10;9.40;;;9.30;91.60;;;;;;5091927;28;20421;-72
2022/03/14 03:44:29;;;;;;;20.10;9.10;;;9.30;91.80;;;;;;5087577;28;20421;-74
2022/03/14 03:46:55;;;;;;;18.30;10.07;;;9.40;92.00;;;;;;5092682;28;20413;-73
2022/03/14 03:49:21;;;;;;;18.53;9.83;;;9.50;92.10;;;;;;5091994;28;20444;-73
2022/03/14 03:51:47;;;;;;;20.47;10.60;;;9.50;92.10;;;;;;5093161;28;20421;-74
2022/03/14 03:54:13;;;;;;;17.87;8.57;;;9.50;92.10;;;;;;5092047;28;20236;-75
2022/03/14 03:56:39;;;;;;;20.33;10.80;;;9.60;92.30;;;;;;5092361;28;20207;-74
2022/03/14 03:59:05;;;;;;;21.97;9.93;;;9.60;92.20;;;;;;5092073;28;20425;-73
2022/03/14 04:01:31;;;;;;;18.77;9.70;;;9.60;92.30;;;;;;5092778;28;20437;-74
2022/03/14 04:03:58;;;;;;;18.30;9.90;;;9.60;92.30;;;;;;5092192;28;20433;-73
2022/03/14 04:06:29;;;;;;;22.53;10.00;;;9.70;92.30;;;;;;5091306;28;20424;-74
2022/03/14 04:08:55;;;;;;;20.00;10.10;;;9.70;92.20;;;;;;5090512;28;20429;-72
2022/03/14 04:11:22;;;;;;;19.57;9.43;;;9.70;92.40;;;;;;5091608;28;20488;-73
2022/03/14 04:13:51;;;;;;;21.90;11.23;;;9.70;92.40;;;;;;5091619;28;20805;-74
2022/03/14 04:16:18;;;;;;;25.40;11.90;;;9.70;92.50;;;;;;5091650;28;20468;-74
2022/03/14 04:18:47;;;;;;;25.23;11.10;;;9.70;92.50;;;;;;5073145;28;20436;-74
2022/03/14 04:21:14;;;;;;;27.00;11.80;;;9.70;92.40;;;;;;5092061;28;20437;-74
2022/03/14 04:23:40;;;;;;;32.00;14.90;;;9.70;92.50;;;;;;5091515;28;20475;-74
2022/03/14 04:26:06;;;;;;;31.20;14.70;;;9.60;92.50;;;;;;5093916;28;20421;-74
2022/03/14 04:28:31;;;;;;;31.10;14.60;;;9.50;92.50;;;;;;5092551;28;20528;-75
2022/03/14 04:30:58;;;;;;;28.70;14.60;;;9.50;92.80;;;;;;5081528;28;20241;-73
2022/03/14 04:33:24;;;;;;;29.67;13.90;;;9.40;92.80;;;;;;5091222;28;20421;-73
2022/03/14 04:35:50;;;;;;;25.93;13.40;;;9.40;93.00;;;;;;5092959;28;20495;-75
2022/03/14 04:38:18;;;;;;;27.53;14.73;;;9.30;93.20;;;;;;5094063;28;20420;-73
2022/03/14 04:40:44;;;;;;;29.00;14.17;;;9.30;93.30;;;;;;5095786;28;20437;-74
2022/03/14 04:43:10;;;;;;;32.83;16.60;;;9.30;93.40;;;;;;5090781;28;20431;-73
2022/03/14 04:45:38;;;;;;;30.23;14.63;;;9.20;93.50;;;;;;5090759;28;20187;-73
2022/03/14 04:48:06;;;;;;;27.83;15.30;;;9.20;93.50;;;;;;5089622;28;20445;-74
2022/03/14 04:50:32;;;;;;;26.60;13.50;;;9.30;93.50;;;;;;5090881;28;21413;-73
2022/03/14 04:52:58;;;;;;;32.40;15.90;;;9.20;93.50;;;;;;5081414;28;20437;-72
2022/03/14 04:55:24;;;;;;;21.20;11.37;;;9.30;93.60;;;;;;5090621;28;20460;-72
2022/03/14 04:57:51;;;;;;;14.40;7.70;;;9.20;93.60;;;;;;5090105;28;20268;-73
2022/03/14 05:00:17;;;;;;;15.17;7.53;;;9.10;93.00;;;;;;5090591;28;20440;-74
2022/03/14 05:02:43;;;;;;;11.37;6.03;;;9.10;92.50;;;;;;5091683;28;20421;-73
2022/03/14 05:05:13;;;;;;;9.83;5.10;;;9.20;92.30;;;;;;5093341;28;20421;-74
2022/03/14 05:07:40;;;;;;;7.07;3.80;;;9.20;92.00;;;;;;5092110;28;21006;-72
2022/03/14 05:10:10;;;;;;;6.43;3.80;;;9.10;91.70;;;;;;5088853;28;20477;-75
2022/03/14 05:12:36;;;;;;;7.30;4.10;;;9.00;91.40;;;;;;5093036;28;20424;-74
2022/03/14 05:15:03;;;;;;;6.40;3.50;;;9.00;91.30;;;;;;5091417;28;20472;-74
2022/03/14 05:17:32;;;;;;;8.97;4.97;;;9.00;91.40;;;;;;5092631;28;20530;-73
2022/03/14 05:19:58;;;;;;;5.20;2.87;;;9.00;91.60;;;;;;5095375;28;20441;-73
2022/03/14 05:22:23;;;;;;;3.27;1.90;;;8.90;91.80;;;;;;5095207;28;20514;-73
2022/03/14 05:24:49;;;;;;;3.50;1.80;;;8.90;91.50;;;;;;5090855;28;20186;-74
2022/03/14 05:27:15;;;;;;;2.40;1.50;;;8.90;91.10;;;;;;5090078;28;20467;-76
2022/03/14 05:29:40;;;;;;;3.70;1.87;;;8.80;90.70;;;;;;5090635;28;20207;-74
2022/03/14 05:32:08;;;;;;;2.63;1.53;;;8.80;90.70;;;;;;5075805;28;20240;-74
2022/03/14 05:34:35;;;;;;;2.53;1.50;;;8.70;90.60;;;;;;5094080;28;20187;-73
2022/03/14 05:37:01;;;;;;;2.80;1.60;;;8.70;90.40;;;;;;5082971;28;20438;-75
2022/03/14 05:39:27;;;;;;;4.30;2.00;;;8.70;90.40;;;;;;5095452;28;20425;-75
2022/03/14 05:41:53;;;;;;;1.80;1.40;;;8.70;90.30;;;;;;5080059;28;20494;-75
2022/03/14 05:44:20;;;;;;;2.73;1.57;;;8.70;90.30;;;;;;5091484;28;20429;-75
2022/03/14 05:46:45;;;;;;;4.40;1.67;;;8.60;90.10;;;;;;5090761;28;20421;-76
2022/03/14 05:49:11;;;;;;;2.17;1.60;;;8.60;90.30;;;;;;5103394;28;20482;-74
2022/03/14 05:51:38;;;;;;;2.30;1.47;;;8.60;90.40;;;;;;5103516;28;20199;-75
2022/03/14 05:54:05;;;;;;;2.73;1.20;;;8.60;90.40;;;;;;5101512;28;20631;-75
2022/03/14 05:56:31;;;;;;;2.77;1.33;;;8.60;90.40;;;;;;5103165;28;20831;-75
2022/03/14 05:58:57;;;;;;;1.73;1.43;;;8.60;90.30;;;;;;5106455;28;20417;-76
2022/03/14 06:01:23;;;;;;;1.57;1.13;;;8.60;90.10;;;;;;5095415;28;20852;-74
2022/03/14 06:03:50;;;;;;;2.30;1.10;;;8.60;89.90;;;;;;5093391;28;20524;-72
2022/03/14 06:06:16;;;;;;;2.63;1.20;;;8.60;89.50;;;;;;5093051;28;20482;-76
2022/03/14 06:08:42;;;;;;;2.20;1.20;;;8.60;89.20;;;;;;5092671;28;20884;-75
2022/03/14 06:11:08;;;;;;;2.10;1.20;;;8.60;89.00;;;;;;5089146;28;20207;-75
2022/03/14 06:13:34;;;;;;;2.13;1.20;;;8.60;89.00;;;;;;5073443;28;20236;-75
2022/03/14 06:15:59;;;;;;;1.90;1.30;;;8.60;88.90;;;;;;5091372;28;20496;-75
2022/03/14 06:18:25;;;;;;;1.90;1.20;;;8.60;88.70;;;;;;5090197;28;20516;-76
2022/03/14 06:20:51;;;;;;;1.87;1.20;;;8.60;88.70;;;;;;5091071;28;20203;-75
2022/03/14 06:23:17;;;;;;;2.60;1.10;;;8.50;88.30;;;;;;5094832;28;20180;-76
2022/03/14 06:25:43;;;;;;;1.43;0.97;;;8.50;88.40;;;;;;5095177;28;20657;-76
2022/03/14 06:28:09;;;;;;;4.40;1.73;;;8.50;88.30;;;;;;5095226;28;20478;-74
2022/03/14 06:30:35;;;;;;;4.73;1.30;;;8.40;87.30;;;;;;5094580;28;20448;-74
2022/03/14 06:33:00;;;;;;;2.50;1.50;;;8.40;87.10;;;;;;5093684;28;20803;-75
2022/03/14 06:35:26;;;;;;;1.80;1.17;;;8.40;87.00;;;;;;5094112;28;20581;-75
2022/03/14 06:37:52;;;;;;;1.90;1.17;;;8.40;87.40;;;;;;5074932;28;20226;-75
2022/03/14 06:40:18;;;;;;;1.97;1.20;;;8.50;87.30;;;;;;5093553;28;20509;-74
2022/03/14 06:42:48;;;;;;;2.03;1.30;;;8.50;87.10;;;;;;5092908;28;20213;-75
2022/03/14 06:45:15;;;;;;;3.00;1.40;;;8.40;87.00;;;;;;5093328;28;20425;-75
2022/03/14 06:47:41;;;;;;;2.20;1.50;;;8.40;86.90;;;;;;5079081;28;20959;-75
2022/03/14 06:50:09;;;;;;;1.90;1.30;;;8.40;86.90;;;;;;5093531;28;20502;-75
2022/03/14 06:52:35;;;;;;;5.00;1.57;;;8.40;87.00;;;;;;5093155;28;20179;-76
2022/03/14 06:55:04;;;;;;;3.30;1.37;;;8.40;86.90;;;;;;5093583;28;21225;-75
2022/03/14 06:57:30;;;;;;;2.20;1.40;;;8.40;87.00;;;;;;5094848;28;20617;-76
2022/03/14 06:59:57;;;;;;;2.30;1.40;;;8.40;87.10;;;;;;5094688;28;20462;-76
2022/03/14 07:02:28;;;;;;;3.40;1.80;;;8.30;87.10;;;;;;5096051;28;20550;-76
2022/03/14 07:04:54;;;;;;;4.43;2.00;;;8.30;87.10;;;;;;5096619;28;20526;-76
2022/03/14 07:07:20;;;;;;;3.50;1.60;;;8.30;87.10;;;;;;5094533;28;20516;-75
2022/03/14 07:09:45;;;;;;;3.40;1.40;;;8.20;86.80;;;;;;5097292;28;20191;-77
2022/03/14 07:12:12;;;;;;;2.03;1.50;;;8.30;86.80;;;;;;5096521;28;20188;-75
2022/03/14 07:14:38;;;;;;;4.20;1.60;;;8.30;86.30;;;;;;5094435;28;20639;-76
2022/03/14 07:17:04;;;;;;;1.87;1.27;;;8.30;86.20;;;;;;5093990;28;20466;-77
2022/03/14 07:19:29;;;;;;;2.27;1.53;;;8.30;86.20;;;;;;5093628;28;20187;-77
2022/03/14 07:21:55;;;;;;;3.07;1.40;;;8.40;85.90;;;;;;5094568;28;20455;-76
2022/03/14 07:24:21;;;;;;;2.80;1.60;;;8.40;85.70;;;;;;5093792;28;20187;-77
2022/03/14 07:26:47;;;;;;;2.43;1.40;;;8.40;85.70;;;;;;5094146;28;20429;-77
2022/03/14 07:29:14;;;;;;;5.97;2.20;;;8.40;85.90;;;;;;5094067;28;20502;-77
2022/03/14 07:31:41;;;;;;;2.53;1.40;;;8.40;86.00;;;;;;5094037;28;20815;-77
2022/03/14 07:34:11;;;;;;;2.23;1.27;;;8.50;85.70;;;;;;5080696;28;20429;-77
2022/03/14 07:36:37;;;;;;;2.57;1.20;;;8.60;85.00;;;;;;5094101;28;20453;-77
2022/03/14 07:39:06;;;;;;;2.60;1.27;;;8.60;84.70;;;;;;5093423;28;20424;-76
2022/03/14 07:41:32;;;;;;;2.20;1.20;;;8.70;84.30;;;;;;5076134;28;20239;-77
2022/03/14 07:44:00;;;;;;;2.00;1.10;;;8.80;84.00;;;;;;5095455;28;20413;-76
2022/03/14 07:46:27;;;;;;;5.07;1.10;;;8.80;82.10;;;;;;5094399;28;20520;-77
2022/03/14 07:48:53;;;;;;;3.93;0.97;;;8.80;81.70;;;;;;5094519;28;20961;-76
2022/03/14 07:51:19;;;;;;;2.57;1.10;;;8.90;81.40;;;;;;5075930;28;20440;-75
2022/03/14 07:53:45;;;;;;;2.97;1.10;;;8.90;80.90;;;;;;5092827;28;20240;-77
2022/03/14 07:56:13;;;;;;;2.60;1.53;;;8.90;80.50;;;;;;5092973;28;20518;-76
2022/03/14 07:58:40;;;;;;;2.73;1.60;;;9.00;80.50;;;;;;5092537;28;20194;-78
2022/03/14 08:01:06;;;;;;;3.57;2.27;;;9.10;80.50;;;;;;5093160;28;20548;-75
2022/03/14 08:03:32;;;;;;;3.83;1.50;;;9.20;80.30;;;;;;5094140;28;20508;-77
2022/03/14 08:06:00;;;;;;;1.77;1.20;;;9.30;80.00;;;;;;5095298;28;20195;-74
2022/03/14 08:08:29;;;;;;;2.63;2.40;;;9.40;79.70;;;;;;5095457;28;20414;-77
2022/03/14 08:10:55;;;;;;;2.53;1.43;;;9.50;79.30;;;;;;5076858;28;20483;-75
2022/03/14 08:13:21;;;;;;;2.20;1.30;;;9.50;78.10;;;;;;5096851;28;20413;-78
2022/03/14 08:15:47;;;;;;;2.80;1.53;;;9.60;77.40;;;;;;5100508;28;20254;-76
2022/03/14 08:18:13;;;;;;;2.90;1.30;;;9.60;77.60;;;;;;5093369;28;20417;-77
2022/03/14 08:20:40;;;;;;;2.47;1.20;;;9.60;77.70;;;;;;5096779;28;20441;-78
2022/03/14 08:23:06;;;;;;;2.47;1.43;;;9.70;77.10;;;;;;5096281;28;20901;-77
2022/03/14 08:25:34;;;;;;;6.67;1.10;;;9.80;77.00;;;;;;5099887;28;20500;-78
2022/03/14 08:28:00;;;;;;;2.10;1.03;;;9.90;75.80;;;;;;5097257;28;20417;-78
2022/03/14 08:30:27;;;;;;;3.73;1.30;;;9.80;75.50;;;;;;5092366;28;20562;-77
2022/03/14 08:32:57;;;;;;;2.50;1.40;;;9.80;72.30;;;;;;5096089;28;20429;-77
2022/03/14 08:35:24;;;;;;;3.20;1.40;;;9.90;73.20;;;;;;5079716;28;20530;-76
2022/03/14 08:37:52;;;;;;;2.90;1.13;;;9.90;72.30;;;;;;5101150;28;20427;-77
2022/03/14 08:40:22;;;;;;;3.23;1.17;;;9.90;70.70;;;;;;5100248;28;20552;-77
2022/03/14 08:42:48;;;;;;;7.50;1.60;;;9.90;70.50;;;;;;5096600;28;20428;-78
2022/03/14 08:45:15;;;;;;;4.70;1.73;;;9.90;70.50;;;;;;5098630;28;20452;-77
2022/03/14 08:47:41;;;;;;;8.23;1.53;;;10.00;70.10;;;;;;5095021;28;20457;-77
2022/03/14 08:50:10;;;;;;;3.53;1.40;;;10.00;69.40;;;;;;5097767;28;20445;-76
2022/03/14 08:52:36;;;;;;;1.83;0.90;;;10.10;69.20;;;;;;5087350;28;20429;-80
2022/03/14 08:55:03;;;;;;;5.90;1.33;;;10.00;69.70;;;;;;5102876;28;20492;-77
2022/03/14 08:57:29;;;;;;;2.07;1.40;;;10.10;68.90;;;;;;5089634;28;20448;-76
2022/03/14 08:59:55;;;;;;;2.77;1.20;;;10.20;68.20;;;;;;5099793;28;21144;-77
2022/03/14 09:02:21;;;;;;;4.80;1.43;;;10.10;68.20;;;;;;5099862;28;20233;-76
2022/03/14 09:04:47;;;;;;;3.70;0.93;;;10.10;68.30;;;;;;5097749;28;20190;-76
2022/03/14 09:07:27;;;;;;;10.53;1.70;;;10.20;68.30;;;;;;5091427;28;20478;-76
2022/03/14 09:09:54;;;;;;;3.60;1.50;;;10.30;67.60;;;;;;5094504;28;20203;-76
2022/03/14 09:12:20;;;;;;;5.57;1.50;;;10.30;66.40;;;;;;5086697;28;20401;-76
2022/03/14 09:14:47;;;;;;;3.43;1.40;;;10.30;66.70;;;;;;5093609;28;20433;-76
2022/03/14 09:17:13;;;;;;;3.17;1.40;;;10.30;66.70;;;;;;5105231;28;20436;-75
2022/03/14 09:19:40;;;;;;;4.90;1.20;;;10.20;67.00;;;;;;5102867;28;20525;-76
2022/03/14 09:22:09;;;;;;;2.40;1.50;;;10.20;66.00;;;;;;5099978;28;20421;-77
2022/03/14 09:24:37;;;;;;;2.57;1.07;;;10.30;66.00;;;;;;5079643;28;20778;-76
2022/03/14 09:27:06;;;;;;;3.03;1.30;;;10.30;65.60;;;;;;5096394;28;20429;-76
2022/03/14 09:29:32;;;;;;;7.40;1.70;;;10.40;64.70;;;;;;5080716;28;20552;-76
2022/03/14 09:31:58;;;;;;;4.13;1.40;;;10.50;64.80;;;;;;5075745;28;21018;-76
2022/03/14 09:34:24;;;;;;;5.40;1.47;;;10.50;64.70;;;;;;5095918;28;20429;-77
2022/03/14 09:36:50;;;;;;;6.17;1.20;;;10.60;64.70;;;;;;5101810;28;20545;-75
2022/03/14 09:39:16;;;;;;;7.83;1.40;;;10.60;65.10;;;;;;5082774;28;20439;-77
2022/03/14 09:41:42;;;;;;;13.10;1.90;;;10.70;65.10;;;;;;5098965;28;20290;-77
2022/03/14 09:44:17;;;;;;;2.33;1.10;;;10.80;64.20;;;;;;5083151;28;20841;-77
2022/03/14 09:46:46;;;;;;;4.50;1.13;;;10.80;63.10;;;;;;5108659;28;20425;-76
2022/03/14 09:49:14;;;;;;;7.40;1.30;;;10.90;63.40;;;;;;5113566;28;20494;-76
2022/03/14 09:51:42;;;;;;;2.03;1.20;;;11.00;63.10;;;;;;5095514;28;20486;-76
2022/03/14 09:54:09;;;;;;;5.70;1.40;;;11.00;62.00;;;;;;5110701;28;20421;-76
2022/03/14 09:56:41;;;;;;;2.50;1.13;;;11.10;61.60;;;;;;5098966;28;20544;-77
2022/03/14 09:59:14;;;;;;;3.70;1.33;;;11.10;60.70;;;;;;5114810;28;20499;-76
2022/03/14 10:01:41;;;;;;;4.00;1.20;;;11.10;60.90;;;;;;5100820;28;20552;-76
2022/03/14 10:04:08;;;;;;;21.17;2.07;;;11.10;60.40;;;;;;5106610;28;20511;-76
2022/03/14 10:06:36;;;;;;;3.07;1.20;;;11.20;61.00;;;;;;5097223;28;20417;-77
2022/03/14 10:09:03;;;;;;;4.97;1.43;;;11.40;60.90;;;;;;5107143;28;20959;-75
2022/03/14 10:11:30;;;;;;;5.43;1.73;;;11.40;59.60;;;;;;5084115;28;21046;-77
2022/03/14 10:13:56;;;;;;;2.67;1.60;;;11.40;60.00;;;;;;5083161;28;20421;-77
2022/03/14 10:16:27;;;;;;;4.23;1.50;;;11.50;59.10;;;;;;5101389;28;20557;-77
2022/03/14 10:19:02;;;;;;;3.60;1.00;;;11.50;58.10;;;;;;5097795;28;20944;-76
2022/03/14 10:21:37;;;;;;;3.33;1.47;;;11.60;57.40;;;;;;5097374;28;20477;-75
2022/03/14 10:24:08;;;;;;;3.90;1.60;;;11.50;57.60;;;;;;5080927;28;20494;-76
2022/03/14 10:26:37;;;;;;;9.50;1.40;;;11.60;57.20;;;;;;5092419;28;20417;-77
2022/03/14 10:29:07;;;;;;;6.17;1.60;;;11.80;56.50;;;;;;5083653;28;20485;-76
2022/03/14 10:31:42;;;;;;;6.17;1.47;;;12.00;56.00;;;;;;5081809;28;20445;-76
2022/03/14 10:34:13;;;;;;;4.63;1.40;;;12.20;56.60;;;;;;5096709;28;20423;-76
2022/03/14 10:36:43;;;;;;;2.80;1.50;;;12.30;56.80;;;;;;5101723;28;20548;-77
2022/03/14 10:39:12;;;;;;;5.33;1.30;;;12.40;56.10;;;;;;5098684;28;20475;-76
2022/03/14 10:41:39;;;;;;;6.20;1.50;;;12.60;55.40;;;;;;5097328;28;20946;-78
2022/03/14 10:44:07;;;;;;;5.40;1.60;;;12.70;54.90;;;;;;5097718;28;20488;-78
2022/03/14 10:46:37;;;;;;;4.97;2.47;;;12.90;54.80;;;;;;5085082;28;20433;-77
2022/03/14 10:49:04;;;;;;;4.33;1.13;;;12.90;53.30;;;;;;5096187;28;20447;-75
2022/03/14 10:51:30;;;;;;;3.77;1.03;;;13.00;52.90;;;;;;5085415;28;20446;-76
2022/03/14 10:54:01;;;;;;;2.20;1.40;;;13.20;52.50;;;;;;5095098;28;20432;-76
2022/03/14 10:56:27;;;;;;;2.77;1.23;;;13.50;51.80;;;;;;5095026;28;20283;-77
2022/03/14 10:58:56;;;;;;;2.30;1.13;;;13.70;50.30;;;;;;5094891;28;20550;-76
2022/03/14 11:01:22;;;;;;;2.17;1.27;;;14.00;49.00;;;;;;5079266;28;20452;-77
2022/03/14 11:03:48;;;;;;;2.70;1.10;;;14.10;48.10;;;;;;5096634;28;20421;-76
2022/03/14 11:06:16;;;;;;;3.87;1.83;;;14.30;47.90;;;;;;5079155;28;20278;-77
2022/03/14 11:08:51;;;;;;;2.10;1.30;;;14.30;47.70;;;;;;5096415;28;20631;-77
2022/03/14 11:11:20;;;;;;;3.10;1.50;;;14.50;47.50;;;;;;5073656;28;20458;-76
2022/03/14 11:13:50;;;;;;;4.87;1.40;;;14.50;46.60;;;;;;5096506;28;20425;-76
2022/03/14 11:16:25;;;;;;;4.23;1.30;;;14.60;46.30;;;;;;5098638;28;20465;-76
2022/03/14 11:18:52;;;;;;;2.70;1.20;;;14.70;46.50;;;;;;5088701;28;20473;-76
2022/03/14 11:21:20;;;;;;;3.13;1.40;;;14.60;47.10;;;;;;5097434;28;20438;-76
2022/03/14 11:23:48;;;;;;;2.00;1.37;;;14.80;46.70;;;;;;5098792;28;20426;-76
2022/03/14 11:26:17;;;;;;;3.30;1.37;;;15.00;45.90;;;;;;5088201;28;20413;-76
2022/03/14 11:28:46;;;;;;;3.73;1.47;;;15.00;46.30;;;;;;5103687;28;20429;-78
2022/03/14 11:31:12;;;;;;;2.93;1.20;;;15.00;45.90;;;;;;5109489;28;20528;-75
2022/03/14 11:33:40;;;;;;;3.60;1.30;;;15.00;46.10;;;;;;5098825;28;20413;-76
2022/03/14 11:36:06;;;;;;;7.73;1.93;;;15.10;45.80;;;;;;5076419;28;20840;-77
2022/03/14 11:38:32;;;;;;;3.17;1.10;;;14.90;45.80;;;;;;5095953;28;20460;-77
2022/03/14 11:40:59;;;;;;;4.20;1.40;;;14.90;45.80;;;;;;5097882;28;20490;-78
2022/03/14 11:43:26;;;;;;;3.93;1.33;;;14.60;46.10;;;;;;5095654;28;20493;-77
2022/03/14 11:45:52;;;;;;;2.40;1.13;;;14.70;46.20;;;;;;5096914;28;20923;-78
2022/03/14 11:48:20;;;;;;;3.80;1.63;;;14.90;45.90;;;;;;5089942;28;20474;-77
2022/03/14 11:50:57;;;;;;;4.73;1.80;;;15.00;46.10;;;;;;5085288;28;20455;-77
2022/03/14 11:53:27;;;;;;;3.30;1.40;;;15.20;46.10;;;;;;5092771;28;20509;-77
2022/03/14 11:55:55;;;;;;;2.20;1.10;;;15.20;46.20;;;;;;5087577;28;20514;-77
2022/03/14 11:58:36;;;;;;;3.47;1.67;;;15.20;45.90;;;;;;5098381;28;20432;-78
2022/03/14 12:01:22;;;;;;;1.77;1.20;;;15.30;45.90;;;;;;5098292;28;20442;-76
2022/03/14 12:03:59;;;;;;;2.70;1.30;;;15.40;44.90;;;;;;5098937;28;20468;-77
2022/03/14 12:06:46;;;;;;;6.60;1.40;;;15.60;44.90;;;;;;5083180;28;20429;-75
2022/03/14 12:09:45;;;;;;;3.10;1.00;;;15.90;44.20;;;;;;5098748;28;20427;-77
2022/03/14 12:12:28;;;;;;;6.40;1.47;;;16.10;43.80;;;;;;5095966;28;20452;-77
2022/03/14 12:14:58;;;;;;;5.97;1.40;;;16.40;43.50;;;;;;5096383;28;20441;-77
2022/03/14 12:17:26;;;;;;;3.17;1.33;;;16.40;42.20;;;;;;5092788;28;20895;-77
2022/03/14 12:19:56;;;;;;;2.80;0.97;;;16.10;43.00;;;;;;5096543;28;20437;-76
2022/03/14 12:22:27;;;;;;;2.90;1.10;;;15.90;43.00;;;;;;5096244;28;20468;-77
2022/03/14 12:24:53;;;;;;;2.63;1.10;;;15.90;43.20;;;;;;5081103;28;20429;-77
2022/03/14 12:27:29;;;;;;;3.10;1.20;;;15.60;43.20;;;;;;5096144;28;20917;-76
2022/03/14 12:29:59;;;;;;;3.13;1.30;;;15.60;43.50;;;;;;5093513;28;20217;-77
2022/03/14 12:32:37;;;;;;;3.10;1.27;;;15.90;43.40;;;;;;5095653;28;20808;-76
2022/03/14 12:35:09;;;;;;;1.53;1.00;;;16.10;43.00;;;;;;5100392;28;20417;-77
2022/03/14 12:37:41;;;;;;;4.50;1.50;;;15.70;43.50;;;;;;5100224;28;20942;-77
2022/03/14 12:40:27;;;;;;;3.70;1.20;;;15.90;43.90;;;;;;5105339;28;20463;-76
2022/03/14 12:42:55;;;;;;;4.07;1.40;;;16.00;43.10;;;;;;5062842;28;20436;-75
2022/03/14 12:45:27;;;;;;;4.70;1.10;;;16.10;43.40;;;;;;5086293;28;20910;-76
2022/03/14 12:47:58;;;;;;;6.53;1.90;;;16.30;43.00;;;;;;5102855;28;20425;-77